Decoded Metar for KDET (DETROIT in MI, USA) (IATA:DET) | Meteo·Mobile Aviation Weather
aviador You're here:

KDET Decoded Metar

DETROIT in MI, USA
Report Time2018-08-21 19:53:00
UTC Time2018-08-21 19:56:50
Flight Rules vfr VFR
Wind260° at 11 Gusting to 20 kt
W.Decomp.*RWY 25: 10.6 kt HW 2.8 kt RCW
RWY 33: 4.6 kt HW 10 kt LCW
W.Rank260° ranks 4
Current wind is above 260° avg. (8.3)
Visibility9999 m
Phenomena:N/A
Clouds:Scattered 041 Hf
Scattered 049 Hf
Broken 060 Hf
Expected CloudBase > 4,000 ft AGL from Temp-Dew spread
Ceiling6,000 ft
Temp28°C (ISA +14)
Dew Point18°C (55% RH)
Heat Index28.9°C
AAT26.9°C
QNH1005 hPa
Density Alt2,805 ft
Elevation623 ft
Report Wrong Elevation
Raw Report
METAR KDET 211953Z 26011G20KT 10SM SCT041 SCT049 BKN060 28/18 A2969
RMK AO2 SLP049 T02830183=

Extra information for KDET:More info

Metar Taf Metar & Taf Last 4 Metars F.Rules Stats Wind Profile Meteogram Temp Stats Airport Information Weather charts Add Link Nearby VenuesMetar ALERT Operation Metar Decoded Social comments

AIRNAV info for KDET